Time;durP1;ratioP1;P1;durP2;ratioP2;P2;SDS_P1;SDS_P2;PMS_P1;PMS_P2;Temp;Humidity;BMP_temperature;BMP_pressure;BME280_temperature;BME280_humidity;BME280_pressure;Samples;Min_cycle;Max_cycle;Signal;HPM_P1;HPM_P2
2022/01/30 00:00:43;;;;;;;17.03;5.47;;;;;;;;;;5037035;28;20532;-62
2022/01/30 00:03:09;;;;;;;24.50;5.63;;;;;;;;;;5035981;28;20171;-62
2022/01/30 00:05:35;;;;;;;23.03;5.03;;;;;;;;;;5037813;28;20325;-62
2022/01/30 00:08:02;;;;;;;22.00;5.00;;;;;;;;;;5041008;28;20655;-62
2022/01/30 00:10:30;;;;;;;18.33;5.23;;;;;;;;;;5040146;28;20278;-62
2022/01/30 00:12:59;;;;;;;25.60;5.97;;;;;;;;;;5039279;28;20183;-61
2022/01/30 00:21:05;;;;;;;14.30;4.60;;;;;;;;;;5036216;28;20180;-63
2022/01/30 00:23:33;;;;;;;16.93;4.20;;;;;;;;;;5034369;28;20174;-62
2022/01/30 00:25:59;;;;;;;20.30;4.67;;;;;;;;;;5038725;28;20195;-62
2022/01/30 00:28:27;;;;;;;24.33;5.87;;;;;;;;;;5041843;28;20178;-62
2022/01/30 00:30:54;;;;;;;25.03;4.80;;;;;;;;;;5041781;28;20175;-62
2022/01/30 00:33:20;;;;;;;21.07;4.90;;;;;;;;;;5041517;28;20261;-62
2022/01/30 00:35:46;;;;;;;17.53;5.33;;;;;;;;;;5040285;28;20234;-62
2022/01/30 00:38:18;;;;;;;21.60;5.17;;;;;;;;;;5036571;28;20285;-62
2022/01/30 00:40:44;;;;;;;18.40;4.43;;;;;;;;;;5034265;28;20642;-62
2022/01/30 00:43:10;;;;;;;22.90;5.03;;;;;;;;;;5035495;28;20179;-62
2022/01/30 00:45:36;;;;;;;20.73;4.87;;;;;;;;;;5033514;28;20199;-64
2022/01/30 00:48:02;;;;;;;20.77;5.47;;;;;;;;;;5051733;22;20237;-66
2022/01/30 00:50:28;;;;;;;18.97;5.57;;;;;;;;;;5034420;28;20199;-66
2022/01/30 00:52:55;;;;;;;18.57;4.13;;;;;;;;;;5034505;28;20179;-66
2022/01/30 00:55:24;;;;;;;20.77;5.20;;;;;;;;;;5034316;28;20175;-66
2022/01/30 00:57:50;;;;;;;24.83;5.90;;;;;;;;;;5033990;28;20207;-66
2022/01/30 01:00:17;;;;;;;29.70;5.87;;;;;;;;;;5032701;28;20207;-66
2022/01/30 01:02:43;;;;;;;22.73;4.53;;;;;;;;;;5032864;28;20214;-66
2022/01/30 01:05:10;;;;;;;21.27;4.70;;;;;;;;;;5032638;28;20183;-66
2022/01/30 01:07:40;;;;;;;25.80;5.47;;;;;;;;;;5034063;28;20529;-66
2022/01/30 01:10:12;;;;;;;19.77;5.67;;;;;;;;;;5034310;28;20563;-67
2022/01/30 01:23:42;;;;;;;21.07;5.43;;;;;;;;;;5034240;28;20255;-66
2022/01/30 01:26:08;;;;;;;27.50;5.87;;;;;;;;;;5032508;28;20175;-66
2022/01/30 01:28:34;;;;;;;21.27;4.40;;;;;;;;;;5033635;28;20612;-67
2022/01/30 01:31:00;;;;;;;21.53;5.47;;;;;;;;;;5032462;28;20646;-66
2022/01/30 01:33:28;;;;;;;19.23;5.23;;;;;;;;;;5032573;28;20183;-66
2022/01/30 01:35:54;;;;;;;22.93;4.57;;;;;;;;;;5032323;28;20183;-66
2022/01/30 01:38:21;;;;;;;23.10;5.57;;;;;;;;;;5032115;28;20241;-66
2022/01/30 01:40:53;;;;;;;24.07;5.03;;;;;;;;;;5033956;28;20171;-67
2022/01/30 01:43:20;;;;;;;20.63;4.97;;;;;;;;;;5033636;28;20159;-66
2022/01/30 01:45:48;;;;;;;22.47;5.13;;;;;;;;;;5034156;28;20171;-66
2022/01/30 01:48:15;;;;;;;23.40;5.47;;;;;;;;;;5032199;28;20271;-66
2022/01/30 01:50:45;;;;;;;20.90;5.43;;;;;;;;;;5037905;28;20178;-66
2022/01/30 01:53:12;;;;;;;24.03;5.20;;;;;;;;;;5045683;28;20210;-67
2022/01/30 01:55:38;;;;;;;18.40;4.87;;;;;;;;;;5046512;28;20175;-67
2022/01/30 01:58:05;;;;;;;22.97;4.77;;;;;;;;;;5046518;28;20218;-68
2022/01/30 02:00:31;;;;;;;27.37;5.60;;;;;;;;;;5033621;28;20180;-66
2022/01/30 02:02:57;;;;;;;22.73;5.70;;;;;;;;;;5033660;28;20262;-67
2022/01/30 02:05:27;;;;;;;26.47;6.07;;;;;;;;;;5033667;28;20219;-67
2022/01/30 02:10:37;;;;;;;23.73;5.87;;;;;;;;;;5033920;28;20290;-66
2022/01/30 02:13:37;;;;;;;25.70;5.30;;;;;;;;;;5031947;28;20560;-67
2022/01/30 02:26:49;;;;;;;27.87;6.20;;;;;;;;;;5037420;28;20198;-66
2022/01/30 02:29:15;;;;;;;29.73;6.27;;;;;;;;;;5036836;28;20199;-66
2022/01/30 02:31:42;;;;;;;26.03;5.57;;;;;;;;;;5035438;28;20237;-66
2022/01/30 02:34:09;;;;;;;24.90;4.57;;;;;;;;;;5036659;28;20182;-66
2022/01/30 02:36:51;;;;;;;32.37;6.13;;;;;;;;;;5035357;28;20183;-66
2022/01/30 02:39:17;;;;;;;21.90;5.73;;;;;;;;;;5036458;28;20367;-66
2022/01/30 02:41:44;;;;;;;18.93;5.07;;;;;;;;;;5035472;28;20675;-66
2022/01/30 02:44:16;;;;;;;22.17;5.33;;;;;;;;;;5036625;28;20534;-66
2022/01/30 02:46:46;;;;;;;22.43;5.33;;;;;;;;;;5036762;28;20528;-66
2022/01/30 02:52:02;;;;;;;24.77;6.23;;;;;;;;;;5025549;28;20191;-66
2022/01/30 02:54:29;;;;;;;26.23;4.83;;;;;;;;;;5036505;28;20175;-66
2022/01/30 02:56:55;;;;;;;28.67;6.53;;;;;;;;;;5035059;28;20183;-66
2022/01/30 02:59:21;;;;;;;25.13;4.60;;;;;;;;;;5034985;28;20230;-66
2022/01/30 03:01:47;;;;;;;20.97;5.00;;;;;;;;;;5034857;28;20229;-66
2022/01/30 03:04:13;;;;;;;24.73;5.33;;;;;;;;;;5035093;28;20594;-66
2022/01/30 03:06:39;;;;;;;19.87;4.80;;;;;;;;;;5036185;28;20201;-66
2022/01/30 03:09:08;;;;;;;25.60;5.97;;;;;;;;;;5036356;28;20666;-66
2022/01/30 03:11:34;;;;;;;21.63;4.93;;;;;;;;;;5035973;28;20577;-68
2022/01/30 03:14:00;;;;;;;33.97;6.20;;;;;;;;;;5035911;28;20715;-66
2022/01/30 03:16:26;;;;;;;18.47;4.67;;;;;;;;;;5034860;28;20222;-66
2022/01/30 03:18:52;;;;;;;21.57;4.80;;;;;;;;;;5034432;28;20234;-66
2022/01/30 03:21:18;;;;;;;21.20;4.80;;;;;;;;;;5035936;28;20184;-66
2022/01/30 03:23:44;;;;;;;28.30;4.57;;;;;;;;;;5035967;28;20179;-66
2022/01/30 03:26:12;;;;;;;29.83;5.90;;;;;;;;;;5035670;28;20179;-66
2022/01/30 03:28:40;;;;;;;24.37;5.67;;;;;;;;;;5034267;28;20207;-66
2022/01/30 03:31:09;;;;;;;28.10;5.57;;;;;;;;;;5035830;28;20652;-66
2022/01/30 03:33:35;;;;;;;21.67;4.83;;;;;;;;;;5035942;28;20205;-66
2022/01/30 03:36:01;;;;;;;18.97;5.37;;;;;;;;;;5034515;28;20182;-66
2022/01/30 03:38:27;;;;;;;22.50;4.67;;;;;;;;;;5035449;28;20216;-66
2022/01/30 03:40:53;;;;;;;23.50;5.73;;;;;;;;;;5035927;28;20186;-66
2022/01/30 03:43:19;;;;;;;30.00;4.83;;;;;;;;;;5035655;28;20183;-66
2022/01/30 03:45:46;;;;;;;20.77;4.00;;;;;;;;;;5036334;28;20194;-67
2022/01/30 03:48:13;;;;;;;21.70;4.60;;;;;;;;;;5036154;28;20217;-67
2022/01/30 03:50:39;;;;;;;26.57;4.70;;;;;;;;;;5035441;28;20187;-66
2022/01/30 03:53:05;;;;;;;25.03;5.00;;;;;;;;;;5034027;28;20193;-66
2022/01/30 03:55:31;;;;;;;24.27;5.60;;;;;;;;;;5035832;28;20233;-66
2022/01/30 03:57:57;;;;;;;24.23;5.07;;;;;;;;;;5033689;28;20222;-66
2022/01/30 04:00:23;;;;;;;19.60;4.83;;;;;;;;;;5035181;28;20259;-66
2022/01/30 04:02:49;;;;;;;20.27;4.63;;;;;;;;;;5034235;28;20190;-66
2022/01/30 04:05:15;;;;;;;24.00;5.57;;;;;;;;;;5035448;28;20175;-66
2022/01/30 04:07:41;;;;;;;30.30;5.50;;;;;;;;;;5033717;28;20264;-66
2022/01/30 04:10:07;;;;;;;15.93;4.73;;;;;;;;;;5035220;28;20539;-66
2022/01/30 04:12:33;;;;;;;26.00;5.83;;;;;;;;;;5034873;28;20179;-67
2022/01/30 04:14:59;;;;;;;19.67;5.57;;;;;;;;;;5033735;28;20183;-66
2022/01/30 04:17:26;;;;;;;25.07;5.67;;;;;;;;;;5033559;28;20278;-66
2022/01/30 04:19:52;;;;;;;23.33;5.27;;;;;;;;;;5034835;28;20249;-66
2022/01/30 04:22:17;;;;;;;25.57;4.83;;;;;;;;;;5034798;28;20549;-66
2022/01/30 04:24:44;;;;;;;25.87;4.93;;;;;;;;;;5033290;28;20233;-66
2022/01/30 04:27:09;;;;;;;25.00;5.47;;;;;;;;;;5034942;28;20551;-66
2022/01/30 04:29:36;;;;;;;25.03;4.63;;;;;;;;;;5034539;28;20282;-66
2022/01/30 04:32:03;;;;;;;22.27;4.83;;;;;;;;;;5034632;28;20183;-66
2022/01/30 04:34:29;;;;;;;23.97;4.23;;;;;;;;;;5034665;28;20186;-66
2022/01/30 04:37:03;;;;;;;17.30;4.50;;;;;;;;;;5034433;28;20674;-66
2022/01/30 04:40:03;;;;;;;18.90;4.20;;;;;;;;;;5034338;28;20238;-66
2022/01/30 04:59:08;;;;;;;14.30;4.33;;;;;;;;;;5034193;28;20217;-66
2022/01/30 05:01:53;;;;;;;23.77;4.87;;;;;;;;;;5034315;28;20192;-66
2022/01/30 05:04:38;;;;;;;22.70;5.20;;;;;;;;;;5034489;28;20250;-66
2022/01/30 05:09:31;;;;;;;21.10;5.50;;;;;;;;;;5033822;28;20581;-66
2022/01/30 05:11:56;;;;;;;16.77;4.37;;;;;;;;;;5034328;28;20528;-66
2022/01/30 05:14:26;;;;;;;34.00;7.50;;;;;;;;;;5032560;28;20228;-66
2022/01/30 05:16:52;;;;;;;21.27;7.83;;;;;;;;;;5033798;28;20258;-66
2022/01/30 05:19:18;;;;;;;16.57;4.57;;;;;;;;;;5032429;28;20256;-66
2022/01/30 05:21:44;;;;;;;31.53;10.03;;;;;;;;;;5032451;28;20185;-66
2022/01/30 05:24:10;;;;;;;29.73;7.53;;;;;;;;;;5032569;28;20254;-66
2022/01/30 05:26:41;;;;;;;20.83;4.00;;;;;;;;;;5033702;28;20176;-66
2022/01/30 05:29:07;;;;;;;28.50;6.00;;;;;;;;;;5033583;28;20198;-67
2022/01/30 05:31:33;;;;;;;22.70;8.73;;;;;;;;;;5033660;28;20225;-67
2022/01/30 05:33:59;;;;;;;21.87;5.63;;;;;;;;;;5032497;28;20562;-66
2022/01/30 05:36:25;;;;;;;30.93;4.87;;;;;;;;;;5033525;28;20179;-66
2022/01/30 05:38:52;;;;;;;18.77;4.03;;;;;;;;;;5033691;28;20210;-66
2022/01/30 05:41:18;;;;;;;32.60;5.13;;;;;;;;;;5033308;28;20640;-66
2022/01/30 05:43:48;;;;;;;24.07;5.03;;;;;;;;;;5033383;28;20175;-66
2022/01/30 05:46:26;;;;;;;26.07;4.70;;;;;;;;;;5033435;28;20155;-66
2022/01/30 05:48:53;;;;;;;19.03;5.07;;;;;;;;;;5032168;28;20263;-66
2022/01/30 05:51:18;;;;;;;25.47;4.90;;;;;;;;;;5033424;28;20260;-66
2022/01/30 05:53:44;;;;;;;22.27;4.17;;;;;;;;;;5033605;28;20183;-66
2022/01/30 05:56:12;;;;;;;28.93;4.60;;;;;;;;;;5032928;28;20186;-66
2022/01/30 05:58:38;;;;;;;19.53;4.30;;;;;;;;;;5037319;28;20211;-66
2022/01/30 06:01:04;;;;;;;19.70;4.73;;;;;;;;;;5038214;28;20274;-66
2022/01/30 06:03:30;;;;;;;23.00;4.03;;;;;;;;;;5037710;28;20643;-66
2022/01/30 06:05:56;;;;;;;11.87;3.90;;;;;;;;;;5037559;28;20183;-66
2022/01/30 06:11:07;;;;;;;22.93;4.83;;;;;;;;;;5037815;28;20242;-67
2022/01/30 06:13:33;;;;;;;19.63;4.43;;;;;;;;;;5037165;28;20538;-67
2022/01/30 06:16:00;;;;;;;18.90;4.17;;;;;;;;;;5037562;28;20190;-66
2022/01/30 06:18:26;;;;;;;19.40;4.43;;;;;;;;;;5035618;28;20219;-66
2022/01/30 06:20:52;;;;;;;25.67;3.93;;;;;;;;;;5035829;28;20209;-66
2022/01/30 06:23:18;;;;;;;20.03;4.33;;;;;;;;;;5037108;28;20179;-66
2022/01/30 06:25:44;;;;;;;21.57;4.20;;;;;;;;;;5035826;28;20285;-66
2022/01/30 06:28:10;;;;;;;18.63;3.93;;;;;;;;;;5035858;28;20203;-66
2022/01/30 06:30:36;;;;;;;17.57;4.33;;;;;;;;;;5037786;28;20179;-66
2022/01/30 06:33:02;;;;;;;14.67;3.67;;;;;;;;;;5037096;28;20183;-66
2022/01/30 06:35:27;;;;;;;19.93;4.23;;;;;;;;;;5042057;28;20179;-67
2022/01/30 06:37:53;;;;;;;19.10;3.77;;;;;;;;;;5038665;28;20675;-66
2022/01/30 06:40:19;;;;;;;15.63;3.80;;;;;;;;;;5042371;28;20640;-67
2022/01/30 06:42:45;;;;;;;16.63;3.70;;;;;;;;;;5036209;28;20179;-66
2022/01/30 06:45:11;;;;;;;15.63;3.90;;;;;;;;;;5036752;28;20592;-66
2022/01/30 06:47:44;;;;;;;18.27;3.63;;;;;;;;;;5036025;28;20198;-65
2022/01/30 06:50:10;;;;;;;20.67;3.97;;;;;;;;;;5036698;28;20185;-66
2022/01/30 06:52:36;;;;;;;13.43;4.27;;;;;;;;;;5037844;28;20179;-67
2022/01/30 06:55:03;;;;;;;19.17;4.13;;;;;;;;;;5035343;28;20182;-66
2022/01/30 06:57:29;;;;;;;14.23;3.60;;;;;;;;;;5036574;28;20258;-66
2022/01/30 06:59:55;;;;;;;12.80;3.30;;;;;;;;;;5036321;28;20278;-67
2022/01/30 07:02:21;;;;;;;20.33;5.03;;;;;;;;;;5036361;28;20647;-66
2022/01/30 07:04:48;;;;;;;16.20;3.30;;;;;;;;;;5036540;28;20230;-66
2022/01/30 07:07:14;;;;;;;16.63;3.80;;;;;;;;;;5035802;28;20167;-66
2022/01/30 07:09:40;;;;;;;21.17;3.80;;;;;;;;;;5035799;28;20241;-66
2022/01/30 07:12:06;;;;;;;17.50;5.17;;;;;;;;;;5034760;28;20187;-66
2022/01/30 07:14:32;;;;;;;18.10;4.60;;;;;;;;;;5035043;28;20270;-66
2022/01/30 07:16:58;;;;;;;8.70;2.60;;;;;;;;;;5036257;28;20662;-65
2022/01/30 07:19:24;;;;;;;16.80;4.70;;;;;;;;;;5035874;28;20225;-66
2022/01/30 07:21:50;;;;;;;24.33;4.90;;;;;;;;;;5036006;28;20171;-66
2022/01/30 07:24:16;;;;;;;12.07;3.53;;;;;;;;;;5036451;28;20179;-65
2022/01/30 07:26:42;;;;;;;12.40;3.77;;;;;;;;;;5042204;28;20183;-67
2022/01/30 07:29:08;;;;;;;16.20;4.07;;;;;;;;;;5042721;28;20233;-66
2022/01/30 07:31:35;;;;;;;18.90;3.90;;;;;;;;;;5044022;28;20184;-66
2022/01/30 07:34:01;;;;;;;16.43;3.80;;;;;;;;;;5039045;28;20187;-66
2022/01/30 07:36:28;;;;;;;17.70;4.10;;;;;;;;;;5036725;28;20397;-66
2022/01/30 07:38:54;;;;;;;11.60;3.30;;;;;;;;;;5036013;28;20215;-66
2022/01/30 07:41:20;;;;;;;10.80;3.57;;;;;;;;;;5035897;28;20168;-66
2022/01/30 07:43:47;;;;;;;15.70;4.67;;;;;;;;;;5036170;28;20179;-67
2022/01/30 07:46:12;;;;;;;17.07;4.13;;;;;;;;;;5034757;28;20184;-67
2022/01/30 07:48:38;;;;;;;15.77;4.30;;;;;;;;;;5035802;28;20714;-67
2022/01/30 07:51:05;;;;;;;18.67;4.20;;;;;;;;;;5035678;28;20229;-66
2022/01/30 07:53:31;;;;;;;14.50;3.10;;;;;;;;;;5034928;28;20651;-66
2022/01/30 07:55:57;;;;;;;17.77;3.33;;;;;;;;;;5035781;28;20203;-66
2022/01/30 07:58:23;;;;;;;12.27;2.87;;;;;;;;;;5035232;28;20571;-66
2022/01/30 08:00:49;;;;;;;19.37;4.10;;;;;;;;;;5035673;28;20179;-66
2022/01/30 08:03:15;;;;;;;13.83;4.07;;;;;;;;;;5033864;28;20561;-66
2022/01/30 08:05:42;;;;;;;15.40;3.43;;;;;;;;;;5035191;28;20517;-66
2022/01/30 08:08:08;;;;;;;12.60;3.90;;;;;;;;;;5035305;28;20199;-66
2022/01/30 08:10:34;;;;;;;25.37;4.40;;;;;;;;;;5035837;28;20529;-66
2022/01/30 08:13:01;;;;;;;16.33;4.50;;;;;;;;;;5036233;28;20183;-66
2022/01/30 08:15:27;;;;;;;25.17;4.80;;;;;;;;;;5033883;28;20595;-66
2022/01/30 08:17:54;;;;;;;17.60;3.40;;;;;;;;;;5035058;28;20237;-66
2022/01/30 08:20:21;;;;;;;17.53;4.23;;;;;;;;;;5034177;28;20225;-66
2022/01/30 08:22:48;;;;;;;13.20;3.33;;;;;;;;;;5035200;28;20569;-66
2022/01/30 08:25:15;;;;;;;14.60;3.73;;;;;;;;;;5034057;28;20182;-66
2022/01/30 08:27:41;;;;;;;14.67;3.73;;;;;;;;;;5034881;28;20202;-66
2022/01/30 08:30:07;;;;;;;12.37;3.67;;;;;;;;;;5033752;28;20175;-66
2022/01/30 08:32:37;;;;;;;18.90;4.10;;;;;;;;;;5033423;28;20178;-66
2022/01/30 08:35:04;;;;;;;18.50;4.23;;;;;;;;;;5035446;28;20180;-66
2022/01/30 08:37:30;;;;;;;21.27;3.80;;;;;;;;;;5034489;28;20179;-67
2022/01/30 08:39:56;;;;;;;17.90;4.43;;;;;;;;;;5034515;28;20217;-67
2022/01/30 08:42:22;;;;;;;14.97;4.10;;;;;;;;;;5034644;28;20231;-67
2022/01/30 08:44:48;;;;;;;21.43;4.40;;;;;;;;;;5034547;28;20175;-66
2022/01/30 08:47:14;;;;;;;19.37;4.20;;;;;;;;;;5034907;28;20179;-66
2022/01/30 08:49:40;;;;;;;14.60;3.13;;;;;;;;;;5034146;28;20218;-66
2022/01/30 08:52:06;;;;;;;15.17;3.67;;;;;;;;;;5034777;28;20317;-66
2022/01/30 08:54:31;;;;;;;16.13;4.47;;;;;;;;;;5033063;28;20187;-67
2022/01/30 08:56:57;;;;;;;18.03;4.20;;;;;;;;;;5034360;28;20194;-66
2022/01/30 08:59:23;;;;;;;19.87;3.90;;;;;;;;;;5034313;28;20226;-66
2022/01/30 09:01:49;;;;;;;16.30;3.37;;;;;;;;;;5034426;28;20278;-66
2022/01/30 09:04:15;;;;;;;12.13;3.93;;;;;;;;;;5034226;28;20651;-66
2022/01/30 09:06:41;;;;;;;20.87;4.70;;;;;;;;;;5037207;28;20229;-66
2022/01/30 09:09:07;;;;;;;16.90;4.37;;;;;;;;;;5035744;28;20206;-66
2022/01/30 09:11:34;;;;;;;16.17;4.83;;;;;;;;;;5034439;28;20179;-66
2022/01/30 09:14:00;;;;;;;17.07;3.80;;;;;;;;;;5033109;28;20187;-66
2022/01/30 09:16:26;;;;;;;16.07;4.10;;;;;;;;;;5034584;28;20531;-66
2022/01/30 09:18:52;;;;;;;21.70;4.23;;;;;;;;;;5032969;28;20229;-67
2022/01/30 09:21:18;;;;;;;12.77;3.53;;;;;;;;;;5037211;28;20612;-67
2022/01/30 09:23:44;;;;;;;9.37;3.00;;;;;;;;;;5044350;28;20186;-66
2022/01/30 09:26:10;;;;;;;13.97;4.40;;;;;;;;;;5053602;28;20179;-67
2022/01/30 09:28:36;;;;;;;16.80;4.30;;;;;;;;;;5041411;28;20282;-67
2022/01/30 09:31:02;;;;;;;14.67;4.40;;;;;;;;;;5035837;28;20614;-67
2022/01/30 09:33:28;;;;;;;20.03;4.83;;;;;;;;;;5035082;28;20179;-66
2022/01/30 09:35:54;;;;;;;17.57;4.27;;;;;;;;;;5036982;28;20313;-67
2022/01/30 09:38:20;;;;;;;19.47;4.50;;;;;;;;;;5034973;28;20728;-67
2022/01/30 09:40:46;;;;;;;18.33;4.53;;;;;;;;;;5036329;28;20183;-67
2022/01/30 09:43:13;;;;;;;16.13;3.97;;;;;;;;;;5034324;28;20183;-66
2022/01/30 09:45:39;;;;;;;24.43;4.90;;;;;;;;;;5033387;28;20190;-66
2022/01/30 09:48:06;;;;;;;19.13;4.50;;;;;;;;;;5032941;28;20215;-66
2022/01/30 09:50:32;;;;;;;25.03;4.83;;;;;;;;;;5032110;28;20175;-66
2022/01/30 09:52:58;;;;;;;18.23;4.43;;;;;;;;;;5033271;28;20240;-67
2022/01/30 09:55:24;;;;;;;23.73;4.30;;;;;;;;;;5033352;28;20225;-67
2022/01/30 09:57:49;;;;;;;14.73;4.20;;;;;;;;;;5033197;28;20624;-66
2022/01/30 10:00:17;;;;;;;15.17;4.70;;;;;;;;;;5032048;28;20182;-66
2022/01/30 10:02:43;;;;;;;20.67;5.13;;;;;;;;;;5032166;28;20175;-67
2022/01/30 10:05:11;;;;;;;25.67;5.20;;;;;;;;;;5031927;28;20191;-66
2022/01/30 10:07:41;;;;;;;18.17;4.70;;;;;;;;;;5033241;28;20171;-66
2022/01/30 10:10:08;;;;;;;16.40;4.43;;;;;;;;;;5033967;28;20191;-66
2022/01/30 10:12:34;;;;;;;18.53;4.80;;;;;;;;;;5032636;28;20188;-66
2022/01/30 10:15:03;;;;;;;14.67;4.27;;;;;;;;;;5033336;28;20184;-66
2022/01/30 10:17:29;;;;;;;29.83;5.23;;;;;;;;;;5033314;28;20175;-66
2022/01/30 10:20:15;;;;;;;22.53;6.30;;;;;;;;;;5031652;28;20604;-66
2022/01/30 10:22:48;;;;;;;18.50;5.33;;;;;;;;;;5033114;28;20175;-66
2022/01/30 10:25:21;;;;;;;12.47;4.87;;;;;;;;;;5031683;28;20644;-66
2022/01/30 10:27:47;;;;;;;16.53;4.90;;;;;;;;;;5032797;28;20190;-66
2022/01/30 10:30:19;;;;;;;20.77;5.23;;;;;;;;;;5031626;28;20183;-67
2022/01/30 10:32:54;;;;;;;17.47;5.50;;;;;;;;;;5031823;28;20247;-66
2022/01/30 10:35:20;;;;;;;17.33;6.00;;;;;;;;;;5033536;28;20677;-66
2022/01/30 10:37:46;;;;;;;16.00;5.80;;;;;;;;;;5032953;28;20179;-66
2022/01/30 10:40:17;;;;;;;28.80;5.70;;;;;;;;;;5033328;28;20226;-66
2022/01/30 10:42:50;;;;;;;20.17;5.00;;;;;;;;;;5034863;28;20164;-66
2022/01/30 10:45:21;;;;;;;16.67;4.87;;;;;;;;;;5036647;28;20666;-66
2022/01/30 10:47:47;;;;;;;20.60;4.17;;;;;;;;;;5036853;28;20260;-66
2022/01/30 10:50:20;;;;;;;20.50;5.13;;;;;;;;;;5035285;28;20220;-66
2022/01/30 10:52:52;;;;;;;23.93;5.60;;;;;;;;;;5036482;28;20186;-67
2022/01/30 10:55:30;;;;;;;37.70;8.83;;;;;;;;;;5036613;28;20179;-66
2022/01/30 10:57:58;;;;;;;32.50;6.03;;;;;;;;;;5036453;28;20297;-66
2022/01/30 11:00:36;;;;;;;18.83;4.93;;;;;;;;;;5035018;28;20191;-66
2022/01/30 11:03:02;;;;;;;24.53;4.90;;;;;;;;;;5036404;28;20250;-66
2022/01/30 11:05:28;;;;;;;26.87;5.87;;;;;;;;;;5036744;28;20277;-66
2022/01/30 11:07:54;;;;;;;24.63;7.63;;;;;;;;;;5034912;28;20555;-66
2022/01/30 11:10:25;;;;;;;22.67;6.23;;;;;;;;;;5036333;28;20555;-67
2022/01/30 11:13:07;;;;;;;30.17;6.43;;;;;;;;;;5036699;28;20164;-66
2022/01/30 11:15:37;;;;;;;22.17;6.10;;;;;;;;;;5036130;28;20171;-66
2022/01/30 11:18:03;;;;;;;24.43;5.40;;;;;;;;;;5037093;28;20264;-66
2022/01/30 11:20:31;;;;;;;19.70;5.53;;;;;;;;;;5036000;28;20185;-66
2022/01/30 11:22:59;;;;;;;29.60;5.63;;;;;;;;;;5035810;28;20175;-66
2022/01/30 11:25:27;;;;;;;22.03;5.47;;;;;;;;;;5034350;28;20233;-67
2022/01/30 11:27:55;;;;;;;19.30;5.23;;;;;;;;;;5035619;28;20182;-66
2022/01/30 11:30:21;;;;;;;26.00;6.87;;;;;;;;;;5034436;28;20183;-66
2022/01/30 11:32:47;;;;;;;22.87;6.17;;;;;;;;;;5035614;28;20194;-66
2022/01/30 11:35:13;;;;;;;20.40;6.23;;;;;;;;;;5035573;28;20175;-66
2022/01/30 11:37:39;;;;;;;19.47;5.13;;;;;;;;;;5034152;28;20637;-67
2022/01/30 11:40:13;;;;;;;20.57;5.87;;;;;;;;;;5035738;28;20167;-66
2022/01/30 11:42:41;;;;;;;20.43;5.50;;;;;;;;;;5035382;28;20179;-66
2022/01/30 11:45:06;;;;;;;25.97;6.13;;;;;;;;;;5034068;28;20175;-66
2022/01/30 11:47:49;;;;;;;23.87;5.93;;;;;;;;;;5035345;28;20171;-66
2022/01/30 11:50:19;;;;;;;26.33;5.30;;;;;;;;;;5034207;28;20178;-66
2022/01/30 11:52:45;;;;;;;19.80;5.37;;;;;;;;;;5035130;28;20179;-66
2022/01/30 11:55:31;;;;;;;24.83;6.23;;;;;;;;;;5034276;28;20179;-65
2022/01/30 11:57:57;;;;;;;18.17;5.63;;;;;;;;;;5035399;28;20263;-66
2022/01/30 12:00:34;;;;;;;27.27;7.07;;;;;;;;;;5035654;28;20569;-66
2022/01/30 12:03:18;;;;;;;19.73;5.80;;;;;;;;;;5035653;28;20167;-66
2022/01/30 12:05:44;;;;;;;20.23;4.87;;;;;;;;;;5034969;28;20547;-66
2022/01/30 12:08:30;;;;;;;33.33;6.67;;;;;;;;;;5037602;28;20196;-66
2022/01/30 12:10:56;;;;;;;21.50;6.37;;;;;;;;;;5035216;28;20258;-66
2022/01/30 12:13:42;;;;;;;18.93;5.60;;;;;;;;;;5033768;28;20280;-66
2022/01/30 12:16:08;;;;;;;27.03;5.33;;;;;;;;;;5033940;28;20171;-66
2022/01/30 12:18:47;;;;;;;25.53;5.43;;;;;;;;;;5034928;28;20762;-66
2022/01/30 12:21:16;;;;;;;26.77;6.07;;;;;;;;;;5035897;28;20298;-66
2022/01/30 12:23:43;;;;;;;19.73;5.43;;;;;;;;;;5058648;28;20195;-67
2022/01/30 12:26:16;;;;;;;14.27;4.53;;;;;;;;;;5046967;28;20179;-67
2022/01/30 12:28:43;;;;;;;22.03;5.80;;;;;;;;;;5034516;28;20290;-66
2022/01/30 12:31:30;;;;;;;22.37;5.33;;;;;;;;;;5035573;28;20179;-66
2022/01/30 12:34:00;;;;;;;19.97;5.27;;;;;;;;;;5035189;28;20175;-66
2022/01/30 12:36:26;;;;;;;18.60;4.80;;;;;;;;;;5034877;28;20721;-66
2022/01/30 12:38:54;;;;;;;28.43;5.63;;;;;;;;;;5035393;28;20225;-67
2022/01/30 12:41:21;;;;;;;26.30;8.53;;;;;;;;;;5034973;28;20186;-66
2022/01/30 12:43:51;;;;;;;19.77;6.03;;;;;;;;;;5034458;28;20179;-66
2022/01/30 12:46:17;;;;;;;30.73;6.17;;;;;;;;;;5035146;28;20159;-66
2022/01/30 12:48:58;;;;;;;23.70;5.97;;;;;;;;;;5034590;28;20273;-66
2022/01/30 12:51:24;;;;;;;28.47;5.90;;;;;;;;;;5033324;28;20175;-67
2022/01/30 12:53:51;;;;;;;28.17;4.97;;;;;;;;;;5034410;28;20213;-66
2022/01/30 12:56:17;;;;;;;21.53;5.40;;;;;;;;;;5035459;28;20561;-67
2022/01/30 12:58:45;;;;;;;19.17;5.70;;;;;;;;;;5034740;28;20211;-66
2022/01/30 13:01:12;;;;;;;27.53;6.73;;;;;;;;;;5035486;28;20171;-67
2022/01/30 13:03:38;;;;;;;28.77;8.10;;;;;;;;;;5036442;28;20178;-66
2022/01/30 13:06:05;;;;;;;29.17;6.60;;;;;;;;;;5035475;28;20212;-67
2022/01/30 13:08:53;;;;;;;20.27;5.90;;;;;;;;;;5033237;28;20206;-66
2022/01/30 13:11:21;;;;;;;28.87;6.17;;;;;;;;;;5032886;28;20175;-66
2022/01/30 13:14:16;;;;;;;20.37;5.40;;;;;;;;;;5032791;28;20190;-66
2022/01/30 13:16:43;;;;;;;26.47;5.77;;;;;;;;;;5029837;28;20187;-66
2022/01/30 13:19:11;;;;;;;31.43;6.90;;;;;;;;;;5033796;28;20214;-66
2022/01/30 13:21:37;;;;;;;23.90;5.73;;;;;;;;;;5033671;28;20182;-66
2022/01/30 13:24:04;;;;;;;22.07;5.53;;;;;;;;;;5039036;28;20636;-66
2022/01/30 13:26:37;;;;;;;21.27;4.93;;;;;;;;;;5040836;28;20183;-65
2022/01/30 13:29:06;;;;;;;29.00;6.90;;;;;;;;;;5039732;28;20210;-66
2022/01/30 13:31:32;;;;;;;29.03;6.67;;;;;;;;;;5039292;28;20242;-66
2022/01/30 13:34:10;;;;;;;22.23;5.40;;;;;;;;;;5034208;28;20214;-66
2022/01/30 13:36:36;;;;;;;20.67;4.97;;;;;;;;;;5034438;28;20673;-67
2022/01/30 13:39:07;;;;;;;19.93;4.97;;;;;;;;;;5033543;28;20219;-67
2022/01/30 13:41:45;;;;;;;20.00;6.00;;;;;;;;;;5032381;28;20171;-66
2022/01/30 13:44:26;;;;;;;21.10;6.60;;;;;;;;;;5033989;28;20159;-66
2022/01/30 13:46:59;;;;;;;22.33;6.00;;;;;;;;;;5033882;28;20600;-66
2022/01/30 13:49:25;;;;;;;20.87;5.37;;;;;;;;;;5033625;28;20207;-66
2022/01/30 13:52:07;;;;;;;20.20;4.37;;;;;;;;;;5047628;22;20238;-63
2022/01/30 13:54:33;;;;;;;24.90;5.77;;;;;;;;;;5014655;28;20237;-61
2022/01/30 13:57:03;;;;;;;27.27;6.43;;;;;;;;;;5015189;28;20184;-61
2022/01/30 13:59:29;;;;;;;24.93;6.23;;;;;;;;;;5015695;28;20551;-61
2022/01/30 14:01:59;;;;;;;19.70;4.70;;;;;;;;;;5013749;28;20200;-61
2022/01/30 14:04:25;;;;;;;25.13;5.43;;;;;;;;;;5014678;28;20206;-61
2022/01/30 14:06:53;;;;;;;22.30;5.37;;;;;;;;;;5013046;28;20640;-61
2022/01/30 14:09:25;;;;;;;19.03;5.30;;;;;;;;;;5014138;28;20263;-61
2022/01/30 14:12:02;;;;;;;23.77;5.73;;;;;;;;;;5014412;28;20262;-61
2022/01/30 14:14:28;;;;;;;22.63;4.67;;;;;;;;;;5016536;28;20167;-62
2022/01/30 14:16:59;;;;;;;26.07;6.13;;;;;;;;;;5016412;28;20267;-62
2022/01/30 14:19:32;;;;;;;27.80;6.50;;;;;;;;;;5017998;28;20200;-61
2022/01/30 14:22:19;;;;;;;21.50;5.20;;;;;;;;;;5016623;28;20250;-62
2022/01/30 14:24:49;;;;;;;26.77;5.60;;;;;;;;;;5018025;28;20267;-61
2022/01/30 14:27:15;;;;;;;20.73;4.90;;;;;;;;;;5018337;28;20176;-62
2022/01/30 14:29:41;;;;;;;15.80;5.67;;;;;;;;;;5017926;28;20175;-62
2022/01/30 14:32:12;;;;;;;18.50;4.87;;;;;;;;;;5016492;28;20265;-61
2022/01/30 14:34:37;;;;;;;20.73;4.97;;;;;;;;;;5018266;28;20727;-61
2022/01/30 14:37:04;;;;;;;20.87;6.00;;;;;;;;;;5018117;28;20219;-61
2022/01/30 14:39:34;;;;;;;19.30;5.43;;;;;;;;;;5017776;28;20199;-61
2022/01/30 14:42:01;;;;;;;18.33;5.20;;;;;;;;;;5017591;28;20196;-61
2022/01/30 14:44:27;;;;;;;16.30;5.87;;;;;;;;;;5017293;28;20269;-61
2022/01/30 14:46:53;;;;;;;22.23;5.57;;;;;;;;;;5017348;28;20176;-61
2022/01/30 14:49:19;;;;;;;20.87;5.17;;;;;;;;;;5017668;28;20187;-61
2022/01/30 14:51:45;;;;;;;26.27;6.53;;;;;;;;;;5017039;28;20269;-61
2022/01/30 14:54:11;;;;;;;28.60;6.83;;;;;;;;;;5017376;28;20180;-63
2022/01/30 14:56:37;;;;;;;21.10;5.07;;;;;;;;;;5017183;28;20184;-64
2022/01/30 14:59:03;;;;;;;21.97;5.43;;;;;;;;;;5016940;28;20200;-61
2022/01/30 15:01:29;;;;;;;19.13;5.23;;;;;;;;;;5017251;28;20245;-61
2022/01/30 15:03:56;;;;;;;29.47;6.87;;;;;;;;;;5017709;28;20599;-61
2022/01/30 15:06:22;;;;;;;27.97;5.73;;;;;;;;;;5017142;28;20183;-61
2022/01/30 15:08:48;;;;;;;24.17;5.60;;;;;;;;;;5017062;28;20184;-62
2022/01/30 15:11:14;;;;;;;29.57;6.20;;;;;;;;;;5017041;28;20211;-62
2022/01/30 15:13:40;;;;;;;24.83;6.47;;;;;;;;;;5017234;28;20180;-62
2022/01/30 15:16:09;;;;;;;21.33;5.83;;;;;;;;;;5017029;28;20215;-61
2022/01/30 15:18:42;;;;;;;28.60;6.80;;;;;;;;;;5016807;28;20294;-62
2022/01/30 15:21:09;;;;;;;27.07;7.93;;;;;;;;;;5025520;28;20278;-61
2022/01/30 15:23:35;;;;;;;28.77;7.13;;;;;;;;;;5025838;28;20183;-62
2022/01/30 15:26:01;;;;;;;28.07;5.83;;;;;;;;;;5027564;28;20179;-62
2022/01/30 15:28:27;;;;;;;28.73;5.83;;;;;;;;;;5026223;28;20208;-61
2022/01/30 15:30:52;;;;;;;25.83;5.80;;;;;;;;;;5017260;28;20180;-61